Carmel Valley, California
Current Conditions -  °F | °C
As of 9:54 PM on Sunday 25 Jan 2015 (Local Time) from KMRY Reporting Station
Clear Clear  
Wind Chill: 59°   Ceiling: Unl
Heat Index: 59°   Visibility: 10mi
Dew Point: 28°   Wind: 6mph
Humidity: 31%   Direction: 80°E
Pressure: 30.04"   Gusts: NA
Location:  36.48°N, 121.73°W
Report Text: KMRY 260554Z AUTO 08005KT 10SM CLR 15/M02 A3004 RMK AO2 SLP183 T01501022 10267 20122 51012
Loading
Personal Weather Stations






























Interactive Weather Map New forecast layout! Learn more

10-Day Weather Forecast

Advertisements
Track Severe Weather on mobile